Time;durP1;ratioP1;P1;durP2;ratioP2;P2;SDS_P1;SDS_P2;PMS_P1;PMS_P2;Temp;Humidity;BMP_temperature;BMP_pressure;BME280_temperature;BME280_humidity;BME280_pressure;Samples;Min_cycle;Max_cycle;Signal;HPM_P1;HPM_P2
2021/05/05 00:02:16;;;;;;;12.37;3.40;;;6.00;99.90;;;;;;5055995;28;20296;-75
2021/05/05 00:04:43;;;;;;;8.77;3.20;;;6.00;99.90;;;;;;5056535;28;20284;-76
2021/05/05 00:07:09;;;;;;;9.10;2.87;;;6.10;99.90;;;;;;5056387;28;20202;-75
2021/05/05 00:09:36;;;;;;;6.30;2.57;;;6.10;99.90;;;;;;5055390;28;20624;-75
2021/05/05 00:12:02;;;;;;;9.67;3.30;;;6.10;99.90;;;;;;5054717;28;20201;-76
2021/05/05 00:14:28;;;;;;;13.07;3.10;;;6.10;99.90;;;;;;5055398;28;20218;-76
2021/05/05 00:16:56;;;;;;;15.33;4.10;;;6.10;99.90;;;;;;5055247;28;20511;-76
2021/05/05 00:19:22;;;;;;;12.90;2.90;;;6.10;99.90;;;;;;5055389;28;20311;-75
2021/05/05 00:21:49;;;;;;;5.97;2.83;;;6.10;99.90;;;;;;5055600;28;20644;-75
2021/05/05 00:24:15;;;;;;;8.37;2.70;;;6.10;99.90;;;;;;5054709;28;20199;-75
2021/05/05 00:26:42;;;;;;;5.90;2.60;;;6.00;99.90;;;;;;5055628;28;20293;-75
2021/05/05 00:29:08;;;;;;;7.03;3.00;;;6.00;99.90;;;;;;5055404;28;20263;-75
2021/05/05 00:31:35;;;;;;;8.50;2.80;;;6.10;99.90;;;;;;5055221;28;20724;-76
2021/05/05 00:34:02;;;;;;;8.70;3.17;;;6.10;99.90;;;;;;5055424;28;20239;-75
2021/05/05 00:36:29;;;;;;;5.67;2.73;;;6.00;99.90;;;;;;5055335;28;20681;-75
2021/05/05 00:38:56;;;;;;;6.10;3.03;;;6.00;99.90;;;;;;5054501;28;20224;-75
2021/05/05 00:41:22;;;;;;;6.07;2.50;;;6.00;99.90;;;;;;5053658;28;20207;-75
2021/05/05 00:43:48;;;;;;;7.43;2.93;;;6.00;99.90;;;;;;5055007;28;20235;-75
2021/05/05 00:46:15;;;;;;;8.30;2.93;;;6.00;99.90;;;;;;5054869;28;20304;-75
2021/05/05 00:48:41;;;;;;;6.70;2.20;;;5.90;99.90;;;;;;5054838;28;20296;-75
2021/05/05 00:51:08;;;;;;;6.40;2.73;;;5.90;99.90;;;;;;5055169;28;20203;-76
2021/05/05 00:53:36;;;;;;;7.77;2.33;;;5.90;99.90;;;;;;5054471;28;20280;-75
2021/05/05 00:56:03;;;;;;;4.73;2.60;;;5.90;99.90;;;;;;5054597;28;20209;-76
2021/05/05 00:58:30;;;;;;;7.00;2.90;;;6.00;99.90;;;;;;5054416;28;20573;-76
2021/05/05 01:00:56;;;;;;;5.97;2.57;;;5.90;99.90;;;;;;5054657;28;20249;-76
2021/05/05 01:03:23;;;;;;;8.80;2.57;;;5.90;99.90;;;;;;5054812;28;20273;-75
2021/05/05 01:05:50;;;;;;;6.83;2.60;;;5.90;99.90;;;;;;5054757;28;20205;-76
2021/05/05 01:08:21;;;;;;;7.97;2.77;;;5.80;99.90;;;;;;5053874;28;20209;-75
2021/05/05 01:10:48;;;;;;;7.60;2.80;;;5.80;99.90;;;;;;5054815;28;20202;-75
2021/05/05 01:13:15;;;;;;;7.63;2.40;;;5.80;99.90;;;;;;5054285;28;20208;-75
2021/05/05 01:15:42;;;;;;;4.97;2.27;;;5.80;99.90;;;;;;5054651;28;20327;-76
2021/05/05 01:18:09;;;;;;;4.87;2.70;;;5.80;99.90;;;;;;5054793;28;20208;-76
2021/05/05 01:20:35;;;;;;;7.63;2.77;;;5.70;99.90;;;;;;5054643;28;20253;-76
2021/05/05 01:23:03;;;;;;;8.00;2.60;;;5.80;99.90;;;;;;5053380;28;20211;-76
2021/05/05 01:25:29;;;;;;;8.57;2.77;;;5.70;99.90;;;;;;5054477;28;20679;-75
2021/05/05 01:27:55;;;;;;;5.43;2.50;;;5.70;99.90;;;;;;5054345;28;20298;-75
2021/05/05 01:30:23;;;;;;;7.37;2.97;;;5.70;99.90;;;;;;5054107;28;20211;-76
2021/05/05 01:32:50;;;;;;;5.20;2.10;;;5.70;99.90;;;;;;5054312;28;20639;-76
2021/05/05 01:35:19;;;;;;;11.83;3.30;;;5.70;99.90;;;;;;5054486;28;20194;-76
2021/05/05 01:37:47;;;;;;;5.40;2.00;;;5.70;99.90;;;;;;5053531;28;20297;-75
2021/05/05 01:40:20;;;;;;;5.73;2.20;;;5.80;99.90;;;;;;5053776;28;20278;-76
2021/05/05 01:42:46;;;;;;;8.83;2.60;;;5.90;99.90;;;;;;5054335;28;20234;-75
2021/05/05 01:45:14;;;;;;;4.27;2.30;;;6.00;99.90;;;;;;5054028;28;20202;-76
2021/05/05 01:47:41;;;;;;;8.90;2.43;;;5.90;99.90;;;;;;5054426;28;20293;-75
2021/05/05 01:50:09;;;;;;;10.13;2.37;;;5.90;99.90;;;;;;5053937;28;20312;-76
2021/05/05 01:52:35;;;;;;;5.73;2.50;;;6.00;99.90;;;;;;5053152;28;20286;-76
2021/05/05 01:55:02;;;;;;;9.00;2.60;;;6.10;99.90;;;;;;5053975;28;20624;-76
2021/05/05 01:57:39;;;;;;;17.63;2.73;;;6.20;99.90;;;;;;5053833;28;20217;-75
2021/05/05 02:00:08;;;;;;;5.87;2.50;;;6.30;99.90;;;;;;5053782;28;20209;-75
2021/05/05 02:02:35;;;;;;;8.23;2.40;;;6.30;99.90;;;;;;5053609;28;20201;-76
2021/05/05 02:05:02;;;;;;;10.77;2.27;;;6.30;99.90;;;;;;5054013;28;20228;-75
2021/05/05 02:07:28;;;;;;;5.63;2.57;;;6.30;99.90;;;;;;5053119;28;20233;-75
2021/05/05 02:09:54;;;;;;;5.47;2.40;;;6.30;99.90;;;;;;5052957;28;20634;-75
2021/05/05 02:12:21;;;;;;;8.30;2.90;;;6.30;99.90;;;;;;5053713;28;20226;-75
2021/05/05 02:14:49;;;;;;;6.77;2.47;;;6.40;99.90;;;;;;5053630;28;20339;-75
2021/05/05 02:17:16;;;;;;;6.57;2.27;;;6.40;99.90;;;;;;5053749;28;20206;-75
2021/05/05 02:19:43;;;;;;;8.27;2.97;;;6.40;99.90;;;;;;5053163;28;20231;-75
2021/05/05 02:22:10;;;;;;;12.53;2.87;;;6.40;99.90;;;;;;5053768;28;20304;-75
2021/05/05 02:24:36;;;;;;;8.03;2.83;;;6.40;99.90;;;;;;5052467;28;20205;-75
2021/05/05 02:27:03;;;;;;;7.13;3.00;;;6.50;99.90;;;;;;5053647;28;20194;-75
2021/05/05 02:29:29;;;;;;;6.30;2.70;;;6.50;99.90;;;;;;5053531;28;20259;-76
2021/05/05 02:31:56;;;;;;;3.97;2.40;;;6.60;99.90;;;;;;5053599;28;20312;-75
2021/05/05 02:34:23;;;;;;;9.43;3.10;;;6.60;99.90;;;;;;5052763;28;20299;-75
2021/05/05 02:36:50;;;;;;;8.20;2.50;;;6.60;99.90;;;;;;5053081;28;20546;-75
2021/05/05 02:39:19;;;;;;;6.57;2.47;;;6.60;99.90;;;;;;5052733;28;20221;-75
2021/05/05 02:41:45;;;;;;;4.87;2.63;;;6.60;99.90;;;;;;5053188;28;20233;-75
2021/05/05 02:44:12;;;;;;;10.00;2.67;;;6.60;99.90;;;;;;5053070;28;20204;-75
2021/05/05 02:46:39;;;;;;;8.53;3.10;;;6.60;99.90;;;;;;5052950;28;20212;-75
2021/05/05 02:49:07;;;;;;;12.93;3.70;;;6.60;99.90;;;;;;5052642;28;20208;-76
2021/05/05 02:51:33;;;;;;;14.37;4.03;;;6.70;99.90;;;;;;5053519;28;20204;-76
2021/05/05 02:54:00;;;;;;;13.70;3.77;;;6.60;99.90;;;;;;5052484;28;20255;-75
2021/05/05 02:56:26;;;;;;;11.10;4.03;;;6.60;99.90;;;;;;5053232;28;20216;-75
2021/05/05 02:58:53;;;;;;;8.77;3.67;;;6.60;99.90;;;;;;5053123;28;20741;-76
2021/05/05 03:01:19;;;;;;;10.27;3.83;;;6.70;99.90;;;;;;5053359;28;20248;-75
2021/05/05 03:03:45;;;;;;;9.33;3.83;;;6.70;99.90;;;;;;5052991;28;20239;-75
2021/05/05 03:06:12;;;;;;;12.90;3.90;;;6.70;99.90;;;;;;5053091;28;20210;-76
2021/05/05 03:08:39;;;;;;;10.00;4.10;;;6.70;99.90;;;;;;5052555;28;20213;-76
2021/05/05 03:11:05;;;;;;;11.13;3.63;;;6.70;99.90;;;;;;5052923;28;20228;-75
2021/05/05 03:13:31;;;;;;;10.37;3.60;;;6.70;99.90;;;;;;5052924;28;20221;-75
2021/05/05 03:15:58;;;;;;;13.17;3.77;;;6.60;99.90;;;;;;5052658;28;20201;-75
2021/05/05 03:18:25;;;;;;;11.83;4.07;;;6.60;99.90;;;;;;5052850;28;20213;-76
2021/05/05 03:20:51;;;;;;;12.87;4.30;;;6.50;99.90;;;;;;5052982;28;20283;-75
2021/05/05 03:23:18;;;;;;;10.73;4.53;;;6.40;99.90;;;;;;5052137;28;20297;-76
2021/05/05 03:25:45;;;;;;;15.67;5.73;;;6.30;99.90;;;;;;5052974;28;20532;-75
2021/05/05 03:28:11;;;;;;;13.00;4.67;;;6.20;99.90;;;;;;5052940;28;20210;-75
2021/05/05 03:30:38;;;;;;;18.90;5.20;;;6.10;99.90;;;;;;5052906;28;20568;-75
2021/05/05 03:33:04;;;;;;;13.97;4.93;;;6.10;99.90;;;;;;5052620;28;20302;-75
2021/05/05 03:35:31;;;;;;;14.30;4.47;;;6.10;99.90;;;;;;5053010;28;20201;-76
2021/05/05 03:37:57;;;;;;;8.97;3.97;;;6.20;99.90;;;;;;5051814;28;20213;-76
2021/05/05 03:40:25;;;;;;;8.50;4.30;;;6.30;99.90;;;;;;5052813;28;20716;-75
2021/05/05 03:42:51;;;;;;;12.73;4.47;;;6.40;99.90;;;;;;5052944;28;20214;-76
2021/05/05 03:45:18;;;;;;;14.83;4.63;;;6.40;99.90;;;;;;5052372;28;20208;-76
2021/05/05 03:47:44;;;;;;;13.20;3.90;;;6.40;99.90;;;;;;5055751;28;20212;-75
2021/05/05 03:50:12;;;;;;;9.70;3.97;;;6.40;99.90;;;;;;5056048;28;20563;-76
2021/05/05 03:52:38;;;;;;;13.63;4.23;;;6.40;99.90;;;;;;5055312;28;20197;-76
2021/05/05 03:55:07;;;;;;;13.03;4.30;;;6.40;99.90;;;;;;5056158;28;20292;-75
2021/05/05 03:57:34;;;;;;;14.60;4.20;;;6.40;99.90;;;;;;5055981;28;20196;-75
2021/05/05 04:00:01;;;;;;;9.17;3.67;;;6.50;99.90;;;;;;5056054;28;20217;-76
2021/05/05 04:02:27;;;;;;;12.97;4.37;;;6.50;99.90;;;;;;5055666;28;20295;-76
2021/05/05 04:04:53;;;;;;;7.43;4.07;;;6.50;99.90;;;;;;5056228;28;20199;-75
2021/05/05 04:07:20;;;;;;;9.53;3.43;;;6.40;99.90;;;;;;5055120;28;20232;-77
2021/05/05 04:09:46;;;;;;;6.93;3.40;;;6.40;99.90;;;;;;5055991;28;20235;-75
2021/05/05 04:12:13;;;;;;;7.57;4.10;;;6.40;99.90;;;;;;5056715;28;20293;-74
2021/05/05 04:14:42;;;;;;;12.47;4.10;;;6.40;99.90;;;;;;5055634;28;20198;-75
2021/05/05 04:17:08;;;;;;;8.97;4.27;;;6.40;99.90;;;;;;5055313;28;20212;-75
2021/05/05 04:19:35;;;;;;;13.63;4.50;;;6.40;99.90;;;;;;5055732;28;20257;-75
2021/05/05 04:22:02;;;;;;;12.53;5.10;;;6.40;99.90;;;;;;5056273;28;20300;-75
2021/05/05 04:24:30;;;;;;;8.30;4.07;;;6.40;99.90;;;;;;5055675;28;20637;-75
2021/05/05 04:26:56;;;;;;;12.67;3.87;;;6.40;99.90;;;;;;5055878;28;20288;-76
2021/05/05 04:29:23;;;;;;;11.33;3.73;;;6.40;99.90;;;;;;5055249;28;20544;-75
2021/05/05 04:31:52;;;;;;;6.93;3.93;;;6.30;99.90;;;;;;5054457;28;20198;-75
2021/05/05 04:34:18;;;;;;;6.43;3.80;;;6.30;99.90;;;;;;5055067;28;20206;-75
2021/05/05 04:36:45;;;;;;;6.47;4.10;;;6.40;99.90;;;;;;5054821;28;20201;-75
2021/05/05 04:39:11;;;;;;;10.27;4.03;;;6.40;99.90;;;;;;5054973;28;20244;-75
2021/05/05 04:41:38;;;;;;;7.77;4.10;;;6.40;99.90;;;;;;5054800;28;20675;-75
2021/05/05 04:44:05;;;;;;;9.87;4.03;;;6.40;99.90;;;;;;5055468;28;20234;-75
2021/05/05 04:46:31;;;;;;;11.03;4.77;;;6.40;99.90;;;;;;5054369;28;20209;-75
2021/05/05 04:48:59;;;;;;;10.53;4.63;;;6.40;99.90;;;;;;5055141;28;20201;-75
2021/05/05 04:51:25;;;;;;;15.37;5.17;;;6.40;99.90;;;;;;5055280;28;20630;-75
2021/05/05 04:53:51;;;;;;;20.47;5.40;;;6.40;99.90;;;;;;5055136;28;20212;-75
2021/05/05 04:56:18;;;;;;;9.00;4.17;;;6.40;99.90;;;;;;5054875;28;20296;-74
2021/05/05 04:58:44;;;;;;;7.97;4.47;;;6.50;99.90;;;;;;5054599;28;20205;-75
2021/05/05 05:01:10;;;;;;;12.30;4.20;;;6.50;99.90;;;;;;5054030;28;20215;-75
2021/05/05 05:03:37;;;;;;;8.77;4.70;;;6.50;99.90;;;;;;5054976;28;20205;-75
2021/05/05 05:06:04;;;;;;;8.37;4.40;;;6.50;99.90;;;;;;5054643;28;20463;-75
2021/05/05 05:08:30;;;;;;;6.87;3.97;;;6.60;99.90;;;;;;5054817;28;20301;-76
2021/05/05 05:10:57;;;;;;;9.10;3.80;;;6.70;99.90;;;;;;5054463;28;20210;-75
2021/05/05 05:13:23;;;;;;;10.10;3.90;;;6.80;99.90;;;;;;5050388;28;20233;-75
2021/05/05 05:15:50;;;;;;;11.90;3.70;;;7.00;99.90;;;;;;5052879;28;20300;-75
2021/05/05 05:18:16;;;;;;;10.07;3.70;;;7.10;99.90;;;;;;5052386;28;20655;-74
2021/05/05 05:20:42;;;;;;;10.33;3.87;;;7.20;99.90;;;;;;5053279;28;20233;-75
2021/05/05 05:23:10;;;;;;;8.87;3.67;;;7.50;99.90;;;;;;5052178;28;20280;-74
2021/05/05 05:25:36;;;;;;;10.10;4.03;;;7.60;99.90;;;;;;5054174;28;20297;-75
2021/05/05 05:28:03;;;;;;;12.60;3.60;;;7.70;99.90;;;;;;5053749;28;20208;-74
2021/05/05 05:30:29;;;;;;;5.90;3.43;;;7.60;99.90;;;;;;5047250;28;20208;-75
2021/05/05 05:32:56;;;;;;;8.03;3.40;;;7.70;99.90;;;;;;5048513;28;20308;-75
2021/05/05 05:35:22;;;;;;;12.67;4.10;;;8.20;99.90;;;;;;5045003;28;20198;-76
2021/05/05 05:37:49;;;;;;;6.43;3.00;;;9.20;99.90;;;;;;5051666;28;20205;-76
2021/05/05 05:40:17;;;;;;;8.43;2.87;;;10.20;99.90;;;;;;5049787;28;21082;-75
2021/05/05 05:42:44;;;;;;;7.50;2.60;;;10.80;99.90;;;;;;5044711;28;20204;-75
2021/05/05 05:45:11;;;;;;;6.50;2.80;;;11.70;99.90;;;;;;5048587;28;20614;-75
2021/05/05 05:47:38;;;;;;;10.00;3.20;;;12.50;99.90;;;;;;5046513;28;20200;-76
2021/05/05 05:50:06;;;;;;;6.30;2.57;;;12.60;99.90;;;;;;5050032;28;20195;-75
2021/05/05 05:52:32;;;;;;;6.30;2.80;;;12.60;99.90;;;;;;5044480;28;20663;-76
2021/05/05 05:54:59;;;;;;;5.20;2.73;;;12.20;99.90;;;;;;5053739;28;20286;-75
2021/05/05 05:57:26;;;;;;;5.87;2.60;;;11.40;99.90;;;;;;5053377;28;20301;-75
2021/05/05 05:59:53;;;;;;;8.13;3.10;;;10.70;99.90;;;;;;5049204;28;20265;-76
2021/05/05 06:02:19;;;;;;;9.93;3.10;;;10.10;99.90;;;;;;5053432;28;20203;-76
2021/05/05 06:04:45;;;;;;;6.53;3.07;;;9.80;99.90;;;;;;5053748;28;20590;-77
2021/05/05 06:07:12;;;;;;;8.53;3.00;;;9.40;99.90;;;;;;5053968;28;20542;-77
2021/05/05 06:09:41;;;;;;;8.70;3.10;;;9.10;99.90;;;;;;5053057;28;20617;-77
2021/05/05 06:12:08;;;;;;;8.23;2.97;;;8.70;99.90;;;;;;5052258;28;20221;-77
2021/05/05 06:14:35;;;;;;;6.20;3.27;;;8.50;99.90;;;;;;5052146;28;20275;-78
2021/05/05 06:17:03;;;;;;;7.43;3.13;;;8.40;99.90;;;;;;5053211;28;20200;-81
2021/05/05 06:19:29;;;;;;;5.90;3.03;;;8.30;99.90;;;;;;5053856;28;20218;-77
2021/05/05 06:21:56;;;;;;;3.90;2.70;;;8.10;99.90;;;;;;5053759;28;20240;-75
2021/05/05 06:24:22;;;;;;;10.23;3.70;;;7.80;99.90;;;;;;5053646;28;20672;-75
2021/05/05 06:26:48;;;;;;;8.23;3.40;;;7.50;99.90;;;;;;5053149;28;20661;-75
2021/05/05 06:29:15;;;;;;;7.90;3.80;;;7.30;99.90;;;;;;5036598;28;20643;-75
2021/05/05 06:31:42;;;;;;;11.43;3.93;;;7.00;99.90;;;;;;5052493;28;20664;-75
2021/05/05 06:34:08;;;;;;;6.23;3.83;;;6.80;99.90;;;;;;5043729;28;20209;-75
2021/05/05 06:36:35;;;;;;;6.43;3.70;;;6.60;99.90;;;;;;5050354;28;20194;-75
2021/05/05 06:39:03;;;;;;;4.93;3.30;;;6.50;99.90;;;;;;5052861;28;20193;-75
2021/05/05 06:41:29;;;;;;;5.50;3.63;;;6.40;99.90;;;;;;5048778;28;20197;-75
2021/05/05 06:43:57;;;;;;;6.90;4.30;;;6.20;99.90;;;;;;5048610;28;20205;-75
2021/05/05 06:46:23;;;;;;;6.63;3.80;;;6.10;99.90;;;;;;5050445;28;20271;-75
2021/05/05 06:48:50;;;;;;;7.13;4.80;;;6.10;99.90;;;;;;5053237;28;20287;-75
2021/05/05 06:51:17;;;;;;;6.33;4.77;;;6.30;99.90;;;;;;5049943;28;20280;-75
2021/05/05 06:53:43;;;;;;;10.07;4.83;;;6.40;99.90;;;;;;5047735;28;20213;-75
2021/05/05 06:56:09;;;;;;;7.60;4.77;;;6.70;99.90;;;;;;5048558;28;20194;-76
2021/05/05 06:58:35;;;;;;;6.03;3.83;;;6.90;99.90;;;;;;5046997;28;20203;-75
2021/05/05 07:01:02;;;;;;;5.03;2.93;;;6.90;99.90;;;;;;5051141;28;20219;-76
2021/05/05 07:03:28;;;;;;;4.73;2.50;;;6.90;99.90;;;;;;5049715;28;20299;-76
2021/05/05 07:05:58;;;;;;;6.33;2.57;;;7.00;99.90;;;;;;5047605;28;20190;-76
2021/05/05 07:08:25;;;;;;;4.77;2.03;;;7.00;99.90;;;;;;5046953;28;20198;-76
2021/05/05 07:10:51;;;;;;;4.47;1.80;;;7.10;99.90;;;;;;5051422;28;20206;-75
2021/05/05 07:13:18;;;;;;;2.73;1.60;;;7.40;99.90;;;;;;5050789;28;20671;-76
2021/05/05 07:15:44;;;;;;;2.83;1.70;;;7.80;99.90;;;;;;5047016;28;20202;-76
2021/05/05 07:18:11;;;;;;;3.27;1.50;;;8.00;99.90;;;;;;5048710;28;20197;-75
2021/05/05 07:20:37;;;;;;;5.43;1.60;;;8.20;99.90;;;;;;5050391;28;20698;-76
2021/05/05 07:23:04;;;;;;;2.60;1.50;;;8.40;99.90;;;;;;5056492;28;20223;-76
2021/05/05 07:25:31;;;;;;;6.97;2.07;;;8.50;99.90;;;;;;5049748;28;20290;-75
2021/05/05 07:27:58;;;;;;;3.67;1.40;;;8.50;99.90;;;;;;5052976;28;20284;-76
2021/05/05 07:30:25;;;;;;;5.80;1.53;;;8.60;99.90;;;;;;5052652;28;20293;-76
2021/05/05 07:32:51;;;;;;;4.83;1.80;;;8.50;99.90;;;;;;5055868;28;20204;-76
2021/05/05 07:35:19;;;;;;;9.23;2.27;;;8.50;99.90;;;;;;5053847;28;20286;-76
2021/05/05 07:46:00;;;;;;;6.20;2.17;;;9.90;99.90;;;;;;5051992;28;20206;-76
2021/05/05 07:48:28;;;;;;;5.40;1.93;;;10.40;99.90;;;;;;5050787;28;20193;-76
2021/05/05 07:50:56;;;;;;;7.80;2.13;;;10.60;99.90;;;;;;5050496;28;20204;-76
2021/05/05 07:53:22;;;;;;;4.93;2.00;;;10.90;99.90;;;;;;5050488;28;20200;-75
2021/05/05 07:55:51;;;;;;;9.63;2.10;;;11.00;99.90;;;;;;5052789;28;20279;-76
2021/05/05 07:58:17;;;;;;;7.97;2.20;;;10.90;99.90;;;;;;5050601;28;20547;-75
2021/05/05 08:00:44;;;;;;;10.53;2.27;;;10.60;99.90;;;;;;5049987;28;20220;-76
2021/05/05 08:03:10;;;;;;;10.83;2.73;;;10.30;99.90;;;;;;5049746;28;20198;-75
2021/05/05 08:05:37;;;;;;;8.57;2.30;;;9.90;99.90;;;;;;5052955;28;20647;-76
2021/05/05 08:08:03;;;;;;;16.20;2.40;;;9.60;99.90;;;;;;5044269;28;20608;-76
2021/05/05 08:10:30;;;;;;;11.67;2.43;;;9.30;99.90;;;;;;5043646;28;20707;-75
2021/05/05 08:12:57;;;;;;;8.57;2.13;;;9.00;99.90;;;;;;5045979;28;20678;-77
2021/05/05 08:15:24;;;;;;;10.00;2.43;;;8.80;99.90;;;;;;5044480;28;20301;-75
2021/05/05 08:17:50;;;;;;;10.47;2.50;;;8.90;99.90;;;;;;5046826;28;20224;-75
2021/05/05 08:20:17;;;;;;;6.37;2.50;;;9.20;99.90;;;;;;5049845;28;20218;-76
2021/05/05 08:22:45;;;;;;;7.63;2.10;;;9.60;99.90;;;;;;5043014;28;20628;-75
2021/05/05 08:25:12;;;;;;;9.90;2.20;;;9.70;99.90;;;;;;5049579;28;20199;-75
2021/05/05 08:27:38;;;;;;;8.60;2.27;;;9.50;99.90;;;;;;5040809;28;20729;-75
2021/05/05 08:30:06;;;;;;;6.30;2.17;;;9.80;99.90;;;;;;5046308;28;20608;-76
2021/05/05 08:32:33;;;;;;;8.07;2.00;;;11.30;99.90;;;;;;5045245;28;20207;-76
2021/05/05 08:34:59;;;;;;;10.30;2.00;;;11.70;99.90;;;;;;5046134;28;20275;-76
2021/05/05 08:37:26;;;;;;;7.87;2.00;;;12.70;99.90;;;;;;5047924;28;20229;-74
2021/05/05 08:39:52;;;;;;;8.27;2.10;;;13.10;99.90;;;;;;5045928;28;20229;-76
2021/05/05 08:42:19;;;;;;;8.23;2.10;;;14.00;99.90;;;;;;5049759;28;20192;-76
2021/05/05 08:44:46;;;;;;;8.40;2.00;;;14.50;99.90;;;;;;5040532;28;20288;-76
2021/05/05 08:47:13;;;;;;;7.07;1.73;;;15.00;99.90;;;;;;5046788;28;20210;-76
2021/05/05 08:49:40;;;;;;;8.20;2.10;;;14.80;99.90;;;;;;5050145;28;20646;-77
2021/05/05 08:52:06;;;;;;;5.37;2.00;;;14.20;99.90;;;;;;5046741;28;20195;-77
2021/05/05 08:54:33;;;;;;;8.37;2.20;;;13.00;99.90;;;;;;5049032;28;20294;-76
2021/05/05 08:56:59;;;;;;;10.23;2.03;;;11.50;99.90;;;;;;5045272;28;20203;-76
2021/05/05 08:59:27;;;;;;;6.73;1.70;;;10.50;99.90;;;;;;5039463;28;20196;-76
2021/05/05 09:01:54;;;;;;;6.50;2.20;;;10.00;99.90;;;;;;5045890;28;20633;-77
2021/05/05 09:04:22;;;;;;;6.43;1.60;;;11.30;99.90;;;;;;5045208;28;20264;-77
2021/05/05 09:06:51;;;;;;;6.97;2.17;;;13.30;99.90;;;;;;5040540;28;20625;-77
2021/05/05 09:09:41;;;;;;;6.67;1.80;;;15.10;99.90;;;;;;5045536;28;20692;-77
2021/05/05 09:12:19;;;;;;;8.53;2.47;;;16.30;99.90;;;;;;5034303;28;20296;-76
2021/05/05 09:14:53;;;;;;;7.90;1.90;;;15.40;99.90;;;;;;5048034;28;20291;-77
2021/05/05 09:17:21;;;;;;;10.23;2.37;;;14.00;99.90;;;;;;5042797;28;20191;-76
2021/05/05 09:19:48;;;;;;;8.33;2.47;;;13.10;99.90;;;;;;5049296;28;20246;-76
2021/05/05 09:22:36;;;;;;;7.90;2.50;;;12.40;99.90;;;;;;5043300;28;20228;-76
2021/05/05 09:25:04;;;;;;;9.23;2.10;;;12.50;99.90;;;;;;5047045;28;20274;-77
2021/05/05 09:27:33;;;;;;;11.10;2.23;;;13.50;99.90;;;;;;5043760;28;20197;-77
2021/05/05 09:30:00;;;;;;;9.10;1.80;;;13.90;99.90;;;;;;5045796;28;20207;-77
2021/05/05 09:32:27;;;;;;;3.70;1.23;;;14.00;99.90;;;;;;5051717;28;20214;-77
2021/05/05 09:34:59;;;;;;;5.87;1.43;;;14.50;99.90;;;;;;5053502;28;20575;-77
2021/05/05 09:37:25;;;;;;;5.30;1.47;;;15.30;99.90;;;;;;5045274;28;20189;-76
2021/05/05 09:40:00;;;;;;;5.67;1.50;;;15.30;99.90;;;;;;5038263;28;20265;-77
2021/05/05 09:42:28;;;;;;;5.33;1.80;;;16.00;99.90;;;;;;5044124;28;20641;-76
2021/05/05 09:44:56;;;;;;;8.73;1.83;;;17.10;99.90;;;;;;5042389;28;20695;-77
2021/05/05 09:47:23;;;;;;;5.43;1.83;;;18.00;99.90;;;;;;5043662;28;20204;-77
2021/05/05 09:49:49;;;;;;;6.73;1.50;;;19.00;99.90;;;;;;5043826;28;20200;-78
2021/05/05 09:52:24;;;;;;;9.13;1.67;;;19.30;99.90;;;;;;5044981;28;20204;-78
2021/05/05 09:54:55;;;;;;;5.57;1.40;;;18.60;99.90;;;;;;5043833;28;20657;-78
2021/05/05 09:57:24;;;;;;;7.93;1.50;;;18.20;99.90;;;;;;5043374;28;20354;-77
2021/05/05 10:00:15;;;;;;;3.67;1.07;;;15.90;99.90;;;;;;5040645;28;20240;-76
2021/05/05 10:02:44;;;;;;;5.27;1.30;;;15.00;99.90;;;;;;5041046;28;20191;-77
2021/05/05 10:05:12;;;;;;;7.77;1.77;;;14.70;99.90;;;;;;5044329;28;20604;-77
2021/05/05 10:07:54;;;;;;;3.57;1.37;;;14.80;99.90;;;;;;5043500;28;20192;-77
2021/05/05 10:10:24;;;;;;;6.07;1.50;;;14.00;99.90;;;;;;5035887;28;20771;-77
2021/05/05 10:12:51;;;;;;;5.23;1.43;;;14.10;99.90;;;;;;5042333;28;20207;-76
2021/05/05 10:15:17;;;;;;;9.23;1.43;;;13.80;99.90;;;;;;5052621;28;20208;-77
2021/05/05 10:17:46;;;;;;;7.47;1.60;;;13.50;99.90;;;;;;5044912;28;20255;-77
2021/05/05 10:20:16;;;;;;;5.77;1.60;;;13.40;99.90;;;;;;5044046;28;20319;-77
2021/05/05 10:22:43;;;;;;;6.37;1.20;;;15.00;99.90;;;;;;5046596;28;20200;-78
2021/05/05 10:25:14;;;;;;;6.80;1.23;;;15.90;99.90;;;;;;5041178;28;20192;-77
2021/05/05 10:27:42;;;;;;;7.10;1.40;;;16.10;99.90;;;;;;5042214;28;20204;-79
2021/05/05 10:30:10;;;;;;;4.43;1.27;;;16.30;99.90;;;;;;5046066;28;20195;-77
2021/05/05 10:32:39;;;;;;;5.97;1.07;;;17.00;99.90;;;;;;5043366;28;20200;-75
2021/05/05 10:35:07;;;;;;;3.97;1.00;;;17.40;99.90;;;;;;5045206;28;20193;-77
2021/05/05 10:37:42;;;;;;;6.67;1.60;;;17.80;99.90;;;;;;5041461;28;20192;-77
2021/05/05 10:40:21;;;;;;;5.83;1.57;;;17.80;99.90;;;;;;5039573;28;20215;-76
2021/05/05 10:43:06;;;;;;;7.90;1.57;;;18.30;99.90;;;;;;5039549;28;20224;-76
2021/05/05 10:45:34;;;;;;;4.83;1.53;;;18.00;99.90;;;;;;5042522;28;20206;-76
2021/05/05 10:48:06;;;;;;;4.60;1.57;;;17.60;99.90;;;;;;5040799;28;20718;-75
2021/05/05 10:50:55;;;;;;;3.63;1.30;;;17.30;99.90;;;;;;5049671;28;20587;-76
2021/05/05 10:53:23;;;;;;;4.33;1.30;;;16.40;99.90;;;;;;5040767;28;20318;-77
2021/05/05 10:55:53;;;;;;;4.43;1.50;;;16.30;99.90;;;;;;5044573;28;20279;-77
2021/05/05 10:58:25;;;;;;;6.13;1.40;;;17.30;99.90;;;;;;5050111;28;20676;-76
2021/05/05 11:01:04;;;;;;;3.93;1.40;;;17.30;99.90;;;;;;5054256;28;20243;-78
2021/05/05 11:04:01;;;;;;;6.07;1.47;;;17.50;99.90;;;;;;5045575;28;20287;-77
2021/05/05 11:06:54;;;;;;;4.40;1.60;;;17.00;99.90;;;;;;5049973;28;20660;-76
2021/05/05 11:09:41;;;;;;;8.03;1.60;;;15.30;99.90;;;;;;5051877;28;20207;-76
2021/05/05 11:12:46;;;;;;;4.77;1.90;;;13.70;99.90;;;;;;5048192;28;20203;-75
2021/05/05 11:15:15;;;;;;;3.77;1.70;;;12.70;99.90;;;;;;5055097;28;20314;-75
2021/05/05 11:17:42;;;;;;;7.20;1.57;;;11.60;99.90;;;;;;5053670;28;20672;-75
2021/05/05 11:20:09;;;;;;;9.90;1.97;;;11.80;99.90;;;;;;5054098;28;20306;-75
2021/05/05 11:22:47;;;;;;;6.53;1.70;;;13.10;99.90;;;;;;5056015;28;20196;-76
2021/05/05 11:25:25;;;;;;;6.27;1.83;;;13.30;99.90;;;;;;5052623;28;20206;-76
2021/05/05 11:27:55;;;;;;;5.40;1.50;;;13.10;99.90;;;;;;5053539;28;20215;-76
2021/05/05 11:30:54;;;;;;;5.17;1.60;;;13.40;99.90;;;;;;5042395;28;20220;-77
2021/05/05 11:33:21;;;;;;;7.63;1.63;;;14.70;99.90;;;;;;5051315;28;20295;-77
2021/05/05 11:35:48;;;;;;;6.77;1.93;;;14.60;99.90;;;;;;5050572;28;20208;-77
2021/05/05 11:38:22;;;;;;;4.67;1.40;;;14.80;99.90;;;;;;5053672;28;20196;-77
2021/05/05 11:40:57;;;;;;;5.90;1.50;;;15.40;99.90;;;;;;5057116;28;20219;-76
2021/05/05 11:43:26;;;;;;;5.20;1.40;;;15.80;99.90;;;;;;5047761;28;20206;-76
2021/05/05 11:45:57;;;;;;;6.73;1.57;;;16.60;99.90;;;;;;5055047;28;20204;-77
2021/05/05 11:48:44;;;;;;;5.73;1.57;;;17.40;99.90;;;;;;5053015;28;20257;-77
2021/05/05 11:51:22;;;;;;;5.20;1.83;;;17.30;99.90;;;;;;5048512;28;20201;-76
2021/05/05 11:53:49;;;;;;;3.47;1.33;;;17.70;99.90;;;;;;5056417;28;20202;-75
2021/05/05 11:56:18;;;;;;;3.00;1.40;;;17.70;99.90;;;;;;5053247;28;20254;-76
2021/05/05 11:58:55;;;;;;;2.77;1.10;;;16.80;99.90;;;;;;5045040;28;20295;-77
2021/05/05 12:01:37;;;;;;;2.93;1.00;;;16.00;99.90;;;;;;5045182;28;20661;-77
2021/05/05 12:04:20;;;;;;;5.20;1.30;;;16.10;99.90;;;;;;5054289;28;20203;-76
2021/05/05 12:06:51;;;;;;;4.30;1.40;;;16.60;99.90;;;;;;5069841;28;20200;-76
2021/05/05 12:09:26;;;;;;;3.00;1.50;;;17.20;99.90;;;;;;5059201;28;20193;-77
2021/05/05 12:12:18;;;;;;;5.50;1.37;;;17.20;99.90;;;;;;5052472;28;20184;-76
2021/05/05 12:14:46;;;;;;;3.27;1.33;;;15.70;99.90;;;;;;5052297;28;20192;-75
2021/05/05 12:17:18;;;;;;;5.57;1.40;;;15.30;99.90;;;;;;5051295;28;20192;-76
2021/05/05 12:19:59;;;;;;;4.03;1.40;;;15.50;99.90;;;;;;5050688;28;20279;-76
2021/05/05 12:22:26;;;;;;;3.30;1.50;;;14.40;99.90;;;;;;5048164;28;20566;-77
2021/05/05 12:25:07;;;;;;;8.80;1.80;;;13.60;99.90;;;;;;5051566;28;20303;-77
2021/05/05 12:27:33;;;;;;;4.83;1.60;;;12.90;99.90;;;;;;5052155;28;20212;-76
2021/05/05 12:30:01;;;;;;;5.33;1.30;;;13.30;99.90;;;;;;5054027;28;20619;-76
2021/05/05 12:32:42;;;;;;;3.53;1.50;;;14.30;99.90;;;;;;5051744;28;20208;-77
2021/05/05 12:35:10;;;;;;;7.13;1.50;;;14.90;99.90;;;;;;5046357;28;20215;-76
2021/05/05 12:37:37;;;;;;;10.13;1.80;;;14.90;99.90;;;;;;5045834;28;20668;-76
2021/05/05 12:40:05;;;;;;;4.80;1.70;;;15.60;99.90;;;;;;5045183;28;20303;-76
2021/05/05 12:42:35;;;;;;;3.13;1.43;;;16.10;99.90;;;;;;5038527;28;20335;-77
2021/05/05 12:45:10;;;;;;;3.60;1.30;;;16.80;99.90;;;;;;5043478;28;20630;-76
2021/05/05 12:47:37;;;;;;;5.70;1.37;;;16.80;99.90;;;;;;5039504;28;20286;-77
2021/05/05 12:50:08;;;;;;;4.33;1.20;;;15.10;99.90;;;;;;5045901;28;20200;-76
2021/05/05 12:52:36;;;;;;;6.17;1.77;;;14.10;99.90;;;;;;5056247;28;20220;-76
2021/05/05 12:55:28;;;;;;;4.93;1.30;;;14.20;99.90;;;;;;5053686;28;20224;-76
2021/05/05 12:58:00;;;;;;;4.43;1.40;;;14.80;99.90;;;;;;5051272;28;20211;-77
2021/05/05 13:00:26;;;;;;;6.53;1.40;;;15.10;99.90;;;;;;5052648;28;20306;-76
2021/05/05 13:03:00;;;;;;;3.03;1.20;;;15.00;99.90;;;;;;5056834;28;21517;-77
2021/05/05 13:05:27;;;;;;;2.50;1.00;;;15.00;99.90;;;;;;5055327;28;20193;-78
2021/05/05 13:07:54;;;;;;;6.70;1.10;;;15.20;99.90;;;;;;5048381;28;20200;-77